Time;durP1;ratioP1;P1;durP2;ratioP2;P2;SDS_P1;SDS_P2;PMS_P1;PMS_P2;Temp;Humidity;BMP_temperature;BMP_pressure;BME280_temperature;BME280_humidity;BME280_pressure;Samples;Min_cycle;Max_cycle;Signal;HPM_P1;HPM_P2
2022/06/30 00:00:39;;;;;;;9.56;7.21;;;20.40;99.90;;;;;;4333691;28;10001367;-75
2022/06/30 00:03:05;;;;;;;8.55;7.75;;;20.40;99.90;;;;;;5038983;28;20024;-75
2022/06/30 00:05:31;;;;;;;7.88;7.18;;;20.40;99.90;;;;;;5037216;28;20017;-75
2022/06/30 00:07:57;;;;;;;8.80;8.00;;;20.40;99.90;;;;;;5026548;28;20076;-75
2022/06/30 00:10:22;;;;;;;8.05;7.25;;;20.40;99.90;;;;;;5034428;28;20040;-75
2022/06/30 00:12:48;;;;;;;8.77;7.97;;;20.30;99.90;;;;;;5025148;28;20021;-75
2022/06/30 00:15:14;;;;;;;8.85;7.88;;;20.30;99.90;;;;;;5038902;28;20079;-75
2022/06/30 00:17:40;;;;;;;8.80;7.97;;;20.20;99.90;;;;;;5036673;28;20029;-75
2022/06/30 00:20:06;;;;;;;8.13;7.25;;;20.10;99.90;;;;;;5032441;28;20028;-75
2022/06/30 00:22:32;;;;;;;8.50;7.70;;;20.10;99.90;;;;;;5036843;28;20438;-75
2022/06/30 00:24:58;;;;;;;9.07;8.18;;;20.00;99.90;;;;;;5038555;28;20150;-75
2022/06/30 00:27:23;;;;;;;8.02;7.28;;;20.00;99.90;;;;;;5038709;28;20021;-75
2022/06/30 00:29:49;;;;;;;8.88;7.97;;;19.90;99.90;;;;;;5038645;28;20047;-75
2022/06/30 00:32:14;;;;;;;9.25;7.95;;;19.90;99.90;;;;;;5034536;28;20083;-75
2022/06/30 00:34:40;;;;;;;8.93;8.13;;;19.80;99.90;;;;;;5030797;28;20052;-74
2022/06/30 00:37:05;;;;;;;9.38;8.48;;;19.80;99.90;;;;;;5038960;28;20032;-75
2022/06/30 00:39:31;;;;;;;10.45;7.93;;;19.70;99.90;;;;;;5032093;28;20087;-74
2022/06/30 00:41:57;;;;;;;11.27;9.05;;;19.70;99.90;;;;;;5040020;28;20041;-75
2022/06/30 00:44:23;;;;;;;9.73;8.82;;;19.60;99.90;;;;;;5040993;28;20306;-75
2022/06/30 00:46:49;;;;;;;10.82;9.02;;;19.60;99.90;;;;;;5044284;28;20035;-74
2022/06/30 00:49:17;;;;;;;9.73;8.73;;;19.60;99.90;;;;;;5035882;28;20029;-75
2022/06/30 00:51:43;;;;;;;10.50;9.25;;;19.60;99.90;;;;;;5042276;28;20074;-75
2022/06/30 00:54:11;;;;;;;9.63;8.75;;;19.50;99.90;;;;;;5040048;28;20040;-75
2022/06/30 00:56:41;;;;;;;9.38;8.57;;;19.50;99.90;;;;;;5043787;28;20130;-75
2022/06/30 00:59:09;;;;;;;9.95;8.95;;;19.50;99.90;;;;;;5037180;28;20032;-75
2022/06/30 01:01:37;;;;;;;9.00;8.20;;;19.50;99.90;;;;;;5029089;28;20452;-75
2022/06/30 01:04:03;;;;;;;9.52;8.63;;;19.50;99.90;;;;;;5032886;28;20056;-75
2022/06/30 01:06:29;;;;;;;9.50;8.60;;;19.40;99.90;;;;;;5041464;28;20060;-75
2022/06/30 01:08:56;;;;;;;11.02;9.98;;;19.40;99.90;;;;;;5040936;28;20110;-75
2022/06/30 01:14:06;;;;;;;9.63;8.73;;;19.30;99.90;;;;;;5034842;28;20047;-75
2022/06/30 01:16:31;;;;;;;10.13;9.07;;;19.30;99.90;;;;;;5045426;28;20556;-75
2022/06/30 01:18:57;;;;;;;10.15;9.20;;;19.20;99.90;;;;;;5038943;28;20033;-75
2022/06/30 01:21:27;;;;;;;11.38;9.85;;;19.20;99.90;;;;;;5041529;28;20036;-75
2022/06/30 01:23:53;;;;;;;10.48;9.55;;;19.20;99.90;;;;;;5040696;28;20381;-74
2022/06/30 01:26:18;;;;;;;10.57;9.57;;;19.20;99.90;;;;;;5044188;28;20016;-75
2022/06/30 01:28:44;;;;;;;11.30;10.23;;;19.20;99.90;;;;;;5037915;28;20104;-75
2022/06/30 01:31:09;;;;;;;11.23;10.07;;;19.20;99.90;;;;;;5044912;28;20037;-75
2022/06/30 01:33:35;;;;;;;11.10;9.90;;;19.20;99.90;;;;;;5046016;28;20625;-75
2022/06/30 01:36:01;;;;;;;10.77;9.68;;;19.20;99.90;;;;;;5048484;28;20075;-75
2022/06/30 01:38:26;;;;;;;11.07;9.25;;;19.30;99.90;;;;;;5039841;28;20036;-75
2022/06/30 01:40:52;;;;;;;13.00;10.23;;;19.20;99.90;;;;;;5047559;28;20024;-74
2022/06/30 01:43:18;;;;;;;11.05;9.95;;;19.20;99.90;;;;;;5045920;28;20032;-75
2022/06/30 01:45:44;;;;;;;10.35;9.35;;;19.20;99.90;;;;;;5043731;28;20120;-75
2022/06/30 01:48:10;;;;;;;9.90;9.00;;;19.10;99.90;;;;;;5044699;28;20452;-75
2022/06/30 01:50:36;;;;;;;10.30;9.40;;;19.10;99.90;;;;;;5038604;28;20037;-74
2022/06/30 01:53:02;;;;;;;12.07;9.77;;;19.10;99.90;;;;;;5040113;28;20029;-75
2022/06/30 01:55:28;;;;;;;10.27;9.27;;;19.10;99.90;;;;;;5039531;28;20064;-75
2022/06/30 01:57:54;;;;;;;10.55;9.55;;;19.10;99.90;;;;;;5045703;28;20393;-75
2022/06/30 02:00:26;;;;;;;10.80;9.80;;;19.00;99.90;;;;;;5037113;28;20036;-75
2022/06/30 02:02:53;;;;;;;11.45;10.35;;;19.00;99.90;;;;;;5040512;28;20029;-75
2022/06/30 02:05:19;;;;;;;10.55;9.45;;;19.00;99.90;;;;;;5040573;28;20025;-75
2022/06/30 02:07:44;;;;;;;11.32;10.30;;;19.00;99.90;;;;;;5033906;28;20071;-74
2022/06/30 02:10:14;;;;;;;11.18;10.18;;;19.00;99.90;;;;;;5035311;28;20127;-75
2022/06/30 02:12:45;;;;;;;11.23;10.13;;;19.00;99.90;;;;;;5042664;28;20037;-74
2022/06/30 02:15:13;;;;;;;13.48;11.68;;;18.90;99.90;;;;;;5038009;28;20412;-74
2022/06/30 02:17:40;;;;;;;12.63;11.30;;;18.90;99.90;;;;;;5042117;28;20071;-74
2022/06/30 02:20:08;;;;;;;14.00;12.35;;;19.00;99.90;;;;;;5042012;28;20086;-75
2022/06/30 02:22:35;;;;;;;19.08;12.70;;;19.00;99.90;;;;;;5042296;28;20033;-74
2022/06/30 02:25:00;;;;;;;13.68;12.27;;;19.00;99.90;;;;;;5042292;28;20025;-75
2022/06/30 02:27:26;;;;;;;13.32;11.93;;;19.10;99.90;;;;;;5059846;28;20440;-75
2022/06/30 02:29:52;;;;;;;14.75;12.02;;;19.10;99.90;;;;;;5030744;28;20560;-75
2022/06/30 02:32:19;;;;;;;13.10;11.68;;;19.10;99.90;;;;;;5033177;28;20048;-75
2022/06/30 02:34:44;;;;;;;11.80;10.65;;;19.10;99.90;;;;;;5039028;28;20533;-75
2022/06/30 02:37:10;;;;;;;13.82;11.52;;;19.10;99.90;;;;;;5040562;28;20283;-74
2022/06/30 02:39:36;;;;;;;13.48;12.15;;;19.10;99.90;;;;;;5037578;28;20388;-75
2022/06/30 02:42:01;;;;;;;13.35;11.98;;;19.10;99.90;;;;;;5041087;28;20033;-75
2022/06/30 02:44:27;;;;;;;14.15;12.70;;;;;;;;;;5046800;28;20023;-75
2022/06/30 02:46:54;;;;;;;12.93;11.38;;;;;;;;;;5046067;28;20056;-75
2022/06/30 02:49:21;;;;;;;11.52;10.32;;;;;;;;;;5039478;28;20252;-75
2022/06/30 02:51:47;;;;;;;11.85;10.63;;;;;;;;;;5044912;28;20037;-74
2022/06/30 02:54:13;;;;;;;13.73;11.70;;;19.00;99.90;;;;;;5038851;28;20085;-75
2022/06/30 02:56:38;;;;;;;15.60;12.32;;;19.10;99.90;;;;;;5044302;28;20361;-75
2022/06/30 02:59:04;;;;;;;13.00;11.65;;;;;;;;;;5039953;28;20608;-74
2022/06/30 03:01:30;;;;;;;12.63;11.32;;;;;;;;;;5041486;28;20131;-74
2022/06/30 03:03:56;;;;;;;12.52;10.93;;;;;;;;;;5031227;28;20032;-75
2022/06/30 03:06:22;;;;;;;13.15;11.02;;;;;;;;;;5044424;28;20036;-75
2022/06/30 03:08:48;;;;;;;14.32;11.00;;;;;;;;;;5043737;28;20037;-75
2022/06/30 03:11:17;;;;;;;12.35;11.02;;;;;;;;;;5040276;28;20069;-75
2022/06/30 03:13:44;;;;;;;12.30;11.00;;;;;;;;;;5035374;28;20500;-74
2022/06/30 03:16:10;;;;;;;12.00;10.80;;;;;;;;;;5039546;28;20037;-74
2022/06/30 03:18:36;;;;;;;12.82;11.50;;;;;;;;;;5038862;28;20033;-75
2022/06/30 03:21:02;;;;;;;13.43;11.90;;;;;;;;;;5039303;28;20029;-75
2022/06/30 03:23:28;;;;;;;13.20;11.90;;;;;;;;;;5043212;28;20179;-74
2022/06/30 03:25:54;;;;;;;14.57;11.15;;;;;;;;;;5045223;28;20107;-76
2022/06/30 03:28:21;;;;;;;13.73;11.57;;;;;;;;;;5031978;28;20032;-76
2022/06/30 03:30:47;;;;;;;12.88;11.55;;;;;;;;;;5039951;28;20029;-74
2022/06/30 03:33:14;;;;;;;14.50;11.57;;;;;;;;;;5035065;28;20299;-74
2022/06/30 03:35:40;;;;;;;17.75;12.65;;;;;;;;;;5037780;28;20059;-74
2022/06/30 03:38:06;;;;;;;12.90;11.50;;;;;;;;;;5045167;28;20021;-74
2022/06/30 03:40:32;;;;;;;15.23;12.23;;;;;;;;;;5043854;28;20120;-74
2022/06/30 03:42:59;;;;;;;13.10;11.70;;;;;;;;;;5042022;28;20028;-75
2022/06/30 03:45:25;;;;;;;15.98;12.05;;;;;;;;;;5038676;28;20036;-74
2022/06/30 03:47:51;;;;;;;18.67;12.63;;;;;;;;;;5065686;28;20111;-74
2022/06/30 03:50:17;;;;;;;13.77;11.85;;;;;;;;;;5040433;28;20504;-74
2022/06/30 03:52:43;;;;;;;14.15;12.48;;;;;;;;;;5045580;28;20021;-74
2022/06/30 03:55:09;;;;;;;13.40;11.82;;;;;;;;;;5048419;28;20028;-74
2022/06/30 03:57:35;;;;;;;14.75;12.13;;;;;;;;;;5046174;28;20037;-74
2022/06/30 04:00:02;;;;;;;12.38;11.18;;;;;;;;;;5041068;28;20029;-75
2022/06/30 04:02:28;;;;;;;12.23;10.93;;;;;;;;;;5034268;28;20070;-74
2022/06/30 04:04:54;;;;;;;12.68;11.35;;;;;;;;;;5032623;28;20150;-74
2022/06/30 04:07:20;;;;;;;12.60;11.30;;;;;;;;;;5039099;28;20036;-74
2022/06/30 04:09:46;;;;;;;12.85;10.57;;;;;;;;;;5041484;28;20094;-74
2022/06/30 04:12:12;;;;;;;11.93;10.63;;;;;;;;;;5040325;28;20033;-74
2022/06/30 04:14:37;;;;;;;14.40;10.32;;;19.60;99.90;;;;;;5044685;28;20040;-74
2022/06/30 04:17:03;;;;;;;12.98;10.27;;;19.80;99.90;;;;;;5041226;28;20029;-74
2022/06/30 04:19:30;;;;;;;12.10;10.85;;;20.40;99.90;;;;;;5033039;28;20035;-74
2022/06/30 04:21:56;;;;;;;11.52;10.43;;;21.20;99.90;;;;;;5040416;28;20548;-74
2022/06/30 04:24:21;;;;;;;11.88;10.27;;;21.90;99.90;;;;;;5036040;28;20041;-74
2022/06/30 04:26:47;;;;;;;12.75;9.68;;;22.40;99.90;;;;;;5045403;28;20032;-73
2022/06/30 04:29:13;;;;;;;10.27;9.23;;;22.60;99.90;;;;;;5031423;28;20036;-74
2022/06/30 04:34:22;;;;;;;13.52;8.43;;;22.30;99.90;;;;;;5040395;28;20864;-73
2022/06/30 04:36:48;;;;;;;10.50;9.23;;;22.00;99.90;;;;;;5036358;28;20025;-73
2022/06/30 04:39:13;;;;;;;10.45;9.25;;;21.80;99.90;;;;;;5037509;28;20138;-73
2022/06/30 04:41:39;;;;;;;12.30;9.30;;;21.70;99.90;;;;;;5041998;28;20025;-74
2022/06/30 04:44:07;;;;;;;12.38;9.73;;;21.60;99.90;;;;;;5039984;28;20113;-74
2022/06/30 04:46:33;;;;;;;12.50;9.88;;;21.60;99.90;;;;;;5031779;28;20033;-74
2022/06/30 04:48:59;;;;;;;10.40;9.40;;;21.60;99.90;;;;;;5036674;28;20047;-74
2022/06/30 04:51:24;;;;;;;11.45;10.05;;;21.60;99.90;;;;;;5044827;28;20021;-74
2022/06/30 04:53:51;;;;;;;11.15;9.40;;;21.60;99.90;;;;;;5039101;28;20071;-74
2022/06/30 04:56:17;;;;;;;9.77;8.75;;;21.50;99.90;;;;;;5049706;28;20040;-74
2022/06/30 04:58:43;;;;;;;10.00;9.02;;;21.50;99.90;;;;;;5034842;28;20107;-74
2022/06/30 05:01:09;;;;;;;10.82;8.48;;;21.30;99.90;;;;;;5043307;28;20429;-74
2022/06/30 05:03:35;;;;;;;9.93;9.02;;;21.20;99.90;;;;;;5032502;28;20047;-74
2022/06/30 05:06:00;;;;;;;9.65;8.65;;;21.00;99.90;;;;;;5044755;28;20033;-74
2022/06/30 05:08:26;;;;;;;9.10;8.15;;;20.80;99.90;;;;;;5039866;28;20033;-74
2022/06/30 05:10:52;;;;;;;10.60;8.68;;;20.70;99.90;;;;;;5049954;28;20024;-74
2022/06/30 05:13:18;;;;;;;9.90;8.90;;;20.60;99.90;;;;;;5041788;28;20033;-74
2022/06/30 05:15:45;;;;;;;11.02;9.05;;;20.60;99.90;;;;;;5043048;28;20387;-75
2022/06/30 05:18:11;;;;;;;11.88;9.70;;;20.60;99.90;;;;;;5042372;28;20401;-75
2022/06/30 05:20:37;;;;;;;12.48;9.73;;;20.80;99.90;;;;;;5041837;28;20087;-75
2022/06/30 05:23:02;;;;;;;9.60;8.60;;;21.00;99.90;;;;;;5044667;28;20435;-75
2022/06/30 05:28:13;;;;;;;10.52;9.30;;;21.40;99.90;;;;;;5037127;28;20432;-75
2022/06/30 05:30:39;;;;;;;11.32;10.05;;;21.50;99.90;;;;;;5045340;28;20021;-74
2022/06/30 05:33:05;;;;;;;10.90;9.60;;;21.60;99.90;;;;;;5043954;28;20044;-74
2022/06/30 05:35:30;;;;;;;10.00;8.38;;;21.70;99.90;;;;;;5037628;28;20033;-75
2022/06/30 05:37:56;;;;;;;10.77;9.57;;;21.70;99.90;;;;;;5038463;28;20488;-74
2022/06/30 05:40:22;;;;;;;11.55;10.30;;;21.70;99.90;;;;;;5033062;28;20040;-75
2022/06/30 05:42:48;;;;;;;11.38;9.63;;;21.90;99.90;;;;;;5032731;28;20108;-76
2022/06/30 05:45:14;;;;;;;11.45;10.07;;;22.00;99.90;;;;;;5043264;28;20035;-75
2022/06/30 05:47:50;;;;;;;13.25;10.45;;;22.00;99.90;;;;;;5033057;28;20028;-75
2022/06/30 05:50:17;;;;;;;11.43;10.15;;;22.10;99.90;;;;;;5046240;28;20108;-76
2022/06/30 05:52:44;;;;;;;10.73;9.63;;;22.20;99.90;;;;;;5043412;28;20050;-76
2022/06/30 05:55:10;;;;;;;13.88;9.77;;;22.40;99.90;;;;;;5042155;28;20032;-76
2022/06/30 05:58:04;;;;;;;10.80;9.50;;;22.60;99.90;;;;;;5042801;28;20116;-76
2022/06/30 06:00:30;;;;;;;;;;;22.90;99.90;;;;;;5040925;28;20435;-75
2022/06/30 06:02:56;;;;;;;10.48;9.48;;;23.00;99.90;;;;;;5046794;28;19999;-75
2022/06/30 06:05:22;;;;;;;11.38;9.70;;;23.10;99.90;;;;;;5042615;28;20112;-75
2022/06/30 06:07:49;;;;;;;11.30;10.20;;;23.30;99.90;;;;;;5040366;28;20108;-75
2022/06/30 06:10:15;;;;;;;11.57;9.98;;;23.40;99.90;;;;;;5037807;28;20036;-75
2022/06/30 06:12:43;;;;;;;11.93;10.73;;;23.50;99.90;;;;;;5046507;28;20056;-75
2022/06/30 06:15:10;;;;;;;10.20;9.20;;;23.60;99.90;;;;;;5041407;28;20021;-75
2022/06/30 06:17:47;;;;;;;11.80;10.60;;;23.70;99.90;;;;;;5046905;28;20036;-75
2022/06/30 06:20:15;;;;;;;12.55;10.90;;;23.80;99.90;;;;;;5033677;28;20771;-76
2022/06/30 06:22:41;;;;;;;12.25;10.40;;;24.00;99.90;;;;;;5034892;28;20026;-76
2022/06/30 06:25:07;;;;;;;12.13;10.02;;;24.10;99.90;;;;;;5041124;28;20028;-76
2022/06/30 06:27:34;;;;;;;13.70;11.65;;;24.30;99.90;;;;;;5036511;28;20108;-76
2022/06/30 06:30:00;;;;;;;16.90;11.75;;;24.40;99.90;;;;;;5038499;28;20448;-75
2022/06/30 06:32:26;;;;;;;13.82;11.07;;;24.40;99.90;;;;;;5047495;28;20078;-75
2022/06/30 06:34:51;;;;;;;11.77;10.50;;;24.30;99.90;;;;;;5040435;28;20048;-75
2022/06/30 06:37:17;;;;;;;13.15;10.90;;;24.40;99.90;;;;;;5043123;28;20029;-76
2022/06/30 06:39:42;;;;;;;12.27;10.80;;;24.50;99.90;;;;;;5045685;28;20485;-76
2022/06/30 06:42:08;;;;;;;14.48;11.05;;;24.60;99.90;;;;;;5035590;28;20060;-76
2022/06/30 06:44:34;;;;;;;14.10;11.85;;;24.80;99.90;;;;;;5040467;28;20112;-76
2022/06/30 06:46:59;;;;;;;12.80;11.60;;;24.90;99.90;;;;;;5039330;28;20029;-76
2022/06/30 06:49:27;;;;;;;16.30;12.32;;;25.00;99.90;;;;;;5039418;28;20032;-75
2022/06/30 06:51:53;;;;;;;14.50;10.93;;;25.20;99.90;;;;;;5044052;28;20032;-75
2022/06/30 06:54:18;;;;;;;13.05;11.02;;;25.20;99.90;;;;;;5046326;28;20035;-75
2022/06/30 06:56:44;;;;;;;12.27;10.70;;;25.40;99.90;;;;;;5043713;28;20112;-76
2022/06/30 06:59:10;;;;;;;14.25;11.73;;;25.60;99.90;;;;;;5044945;28;20532;-76
2022/06/30 07:01:35;;;;;;;15.32;12.63;;;25.70;99.90;;;;;;5048656;28;20036;-76
2022/06/30 07:04:01;;;;;;;12.82;11.43;;;25.80;99.90;;;;;;5044776;28;20076;-76
2022/06/30 07:06:27;;;;;;;14.00;10.95;;;25.80;99.90;;;;;;5042188;28;20602;-75
2022/06/30 07:08:52;;;;;;;13.20;11.80;;;25.80;99.90;;;;;;5036688;28;20551;-76
2022/06/30 07:11:18;;;;;;;11.93;10.75;;;25.90;99.90;;;;;;5042901;28;20033;-75
2022/06/30 07:13:43;;;;;;;13.93;11.45;;;25.90;99.90;;;;;;5040769;28;20037;-75
2022/06/30 07:16:09;;;;;;;14.55;12.02;;;26.00;99.90;;;;;;5039983;28;20366;-76
2022/06/30 07:18:34;;;;;;;13.95;11.10;;;26.00;99.90;;;;;;5033454;28;20032;-76
2022/06/30 07:21:00;;;;;;;11.50;10.38;;;26.10;99.90;;;;;;5035249;28;20099;-76
2022/06/30 07:23:26;;;;;;;12.40;11.20;;;26.30;99.90;;;;;;5037796;28;20071;-76
2022/06/30 07:25:51;;;;;;;14.77;11.20;;;26.50;99.90;;;;;;5039446;28;20112;-76
2022/06/30 07:28:17;;;;;;;12.38;11.18;;;26.70;99.90;;;;;;5039319;28;20037;-76
2022/06/30 07:30:42;;;;;;;12.38;11.27;;;26.70;99.90;;;;;;5040001;28;20036;-76
2022/06/30 07:33:08;;;;;;;13.45;11.43;;;26.80;99.90;;;;;;5042870;28;20021;-75
2022/06/30 07:35:34;;;;;;;13.35;10.32;;;26.80;99.90;;;;;;5037411;28;20488;-76
2022/06/30 07:37:59;;;;;;;11.40;10.20;;;27.00;99.90;;;;;;5035260;28;20033;-76
2022/06/30 07:40:25;;;;;;;12.00;10.80;;;27.00;99.90;;;;;;5034051;28;20025;-75
2022/06/30 07:42:52;;;;;;;12.65;11.45;;;27.10;99.90;;;;;;5036968;28;20488;-75
2022/06/30 07:45:18;;;;;;;12.52;11.23;;;27.20;99.90;;;;;;5041922;28;20033;-75
2022/06/30 07:47:46;;;;;;;12.38;10.80;;;27.20;99.90;;;;;;5040442;28;20032;-76
2022/06/30 07:50:12;;;;;;;10.63;9.63;;;27.30;99.90;;;;;;5035122;28;20393;-75
2022/06/30 07:52:38;;;;;;;10.63;9.38;;;27.50;99.90;;;;;;5036802;28;20036;-76
2022/06/30 07:55:05;;;;;;;11.93;10.05;;;27.80;99.90;;;;;;5042869;28;20072;-76
2022/06/30 07:57:30;;;;;;;11.40;10.25;;;28.10;99.90;;;;;;5040436;28;20116;-76
2022/06/30 07:59:56;;;;;;;11.20;9.55;;;28.10;99.90;;;;;;5041239;28;20682;-76
2022/06/30 08:02:22;;;;;;;12.20;9.88;;;28.30;99.90;;;;;;5039923;28;20116;-76
2022/06/30 08:04:48;;;;;;;10.07;9.07;;;;;;;;;;5042437;28;20090;-75
2022/06/30 08:07:14;;;;;;;11.70;8.80;;;28.50;99.90;;;;;;5034658;28;20025;-76
2022/06/30 08:09:39;;;;;;;11.75;8.65;;;28.70;99.90;;;;;;5039503;28;20098;-76
2022/06/30 08:12:06;;;;;;;12.68;9.85;;;28.80;99.90;;;;;;5042447;28;20036;-76
2022/06/30 08:14:33;;;;;;;9.73;8.77;;;28.90;99.90;;;;;;5041162;28;20642;-76
2022/06/30 08:16:59;;;;;;;10.93;9.82;;;29.00;99.90;;;;;;5036155;28;20060;-76
2022/06/30 08:19:25;;;;;;;10.68;9.63;;;29.20;99.90;;;;;;5039317;28;20024;-76
2022/06/30 08:21:50;;;;;;;9.65;8.75;;;29.10;99.90;;;;;;5035250;28;20025;-76
2022/06/30 08:24:16;;;;;;;10.15;8.90;;;29.10;99.90;;;;;;5037809;28;20175;-76
2022/06/30 08:26:42;;;;;;;9.68;8.68;;;29.20;99.90;;;;;;5033663;28;20029;-76
2022/06/30 08:29:08;;;;;;;10.02;9.02;;;29.30;99.90;;;;;;5029028;28;20049;-76
2022/06/30 08:31:35;;;;;;;12.00;8.35;;;29.40;99.90;;;;;;5037129;28;20115;-76
2022/06/30 08:34:02;;;;;;;9.75;8.75;;;29.60;99.90;;;;;;5039135;28;20056;-77
2022/06/30 08:36:27;;;;;;;10.18;8.60;;;29.70;99.30;;;;;;5045604;28;20528;-76
2022/06/30 08:38:53;;;;;;;9.13;8.23;;;29.60;99.90;;;;;;5036774;28;20231;-75
2022/06/30 08:44:03;;;;;;;10.80;8.98;;;29.50;99.90;;;;;;5043853;28;20143;-75
2022/06/30 08:46:30;;;;;;;9.05;8.15;;;29.60;99.90;;;;;;5041187;28;20044;-75
2022/06/30 08:48:56;;;;;;;9.90;8.60;;;29.40;99.90;;;;;;5037615;28;20508;-75
2022/06/30 08:51:22;;;;;;;11.70;9.70;;;29.30;99.90;;;;;;5041316;28;20166;-75
2022/06/30 08:54:03;;;;;;;9.65;8.65;;;29.50;99.90;;;;;;5039601;28;20087;-74
2022/06/30 08:56:30;;;;;;;10.77;8.85;;;29.60;99.90;;;;;;5043406;28;20033;-75
2022/06/30 08:58:57;;;;;;;10.15;9.15;;;29.60;99.90;;;;;;5036456;28;20044;-77
2022/06/30 09:01:25;;;;;;;9.80;8.77;;;29.70;99.90;;;;;;5038092;28;20564;-79
2022/06/30 09:03:52;;;;;;;10.70;9.15;;;29.70;99.90;;;;;;5037524;28;20174;-76
2022/06/30 09:06:18;;;;;;;9.23;8.32;;;29.80;99.90;;;;;;5033384;28;20033;-76
2022/06/30 09:08:43;;;;;;;9.68;8.63;;;30.00;99.90;;;;;;5027655;28;20073;-76
2022/06/30 09:11:09;;;;;;;9.13;8.23;;;30.00;99.90;;;;;;5043551;28;20029;-74
2022/06/30 09:13:43;;;;;;;9.40;7.93;;;30.00;99.90;;;;;;5038672;28;20033;-77
2022/06/30 09:16:08;;;;;;;8.10;7.30;;;30.10;99.90;;;;;;5038536;28;20048;-77
2022/06/30 09:18:34;;;;;;;10.15;8.55;;;30.40;99.90;;;;;;5037208;28;20485;-76
2022/06/30 09:21:06;;;;;;;9.13;8.23;;;30.40;99.90;;;;;;5045998;28;20435;-78
2022/06/30 09:23:32;;;;;;;12.15;7.80;;;30.40;99.90;;;;;;5044063;28;20449;-76
2022/06/30 09:26:01;;;;;;;7.78;7.00;;;30.40;99.90;;;;;;5030695;28;20029;-75
2022/06/30 09:28:43;;;;;;;7.35;6.60;;;30.40;99.90;;;;;;5038489;28;20762;-74
2022/06/30 09:31:10;;;;;;;10.47;7.50;;;30.60;99.90;;;;;;5041500;28;20029;-77
2022/06/30 09:33:40;;;;;;;9.57;7.22;;;30.70;99.90;;;;;;5035349;28;20550;-76
2022/06/30 09:36:27;;;;;;;13.82;7.63;;;30.80;99.90;;;;;;5043008;28;20029;-76
2022/06/30 09:39:10;;;;;;;8.45;7.32;;;30.90;99.90;;;;;;5046182;28;20276;-76
2022/06/30 09:41:39;;;;;;;;;;;30.70;99.90;;;;;;5037332;28;20025;-75
2022/06/30 09:44:24;;;;;;;12.05;7.20;;;30.50;99.90;;;;;;5048492;28;20514;-74
2022/06/30 09:47:01;;;;;;;9.75;7.20;;;30.00;99.90;;;;;;5045578;28;20035;-77
2022/06/30 09:49:49;;;;;;;10.00;7.45;;;29.70;99.90;;;;;;5057183;28;20028;-75
2022/06/30 09:52:18;;;;;;;8.88;7.40;;;29.50;99.90;;;;;;5055858;28;20178;-76
2022/06/30 09:55:06;;;;;;;12.27;7.50;;;29.70;99.90;;;;;;5048329;28;20047;-76
2022/06/30 09:57:36;;;;;;;9.32;7.30;;;29.80;99.90;;;;;;5041372;28;20036;-76
2022/06/30 10:00:14;;;;;;;7.40;6.60;;;29.70;99.90;;;;;;5046017;28;20102;-76
2022/06/30 10:02:51;;;;;;;9.13;7.00;;;29.80;99.90;;;;;;5049476;28;20013;-76
2022/06/30 10:05:18;;;;;;;9.70;6.78;;;30.10;99.90;;;;;;5047623;28;20032;-76
2022/06/30 10:07:45;;;;;;;8.25;7.45;;;30.50;99.90;;;;;;5037943;28;20575;-76
2022/06/30 10:10:13;;;;;;;8.60;7.03;;;30.60;99.90;;;;;;5028630;28;20029;-76
2022/06/30 10:12:40;;;;;;;9.40;6.93;;;30.60;99.90;;;;;;5042878;28;20378;-76
2022/06/30 10:15:08;;;;;;;9.23;7.60;;;30.70;99.90;;;;;;5041034;28;20536;-76
2022/06/30 10:17:37;;;;;;;9.65;6.95;;;30.90;99.90;;;;;;5043708;28;20036;-76
2022/06/30 10:20:03;;;;;;;7.53;6.72;;;30.70;99.70;;;;;;5044731;28;20416;-76
2022/06/30 10:22:29;;;;;;;7.10;6.32;;;30.50;99.30;;;;;;5051987;28;20586;-76
2022/06/30 10:24:57;;;;;;;7.75;6.80;;;30.30;99.60;;;;;;5038329;28;20033;-76
2022/06/30 10:27:24;;;;;;;8.95;6.88;;;30.40;99.90;;;;;;5047047;28;20059;-77
2022/06/30 10:29:57;;;;;;;11.13;6.32;;;30.60;98.80;;;;;;5044960;28;20369;-76
2022/06/30 10:33:02;;;;;;;8.80;6.70;;;30.80;99.00;;;;;;5037152;28;20282;-76
2022/06/30 10:36:01;;;;;;;8.70;6.25;;;31.10;99.20;;;;;;5056114;28;20048;-76
2022/06/30 10:38:34;;;;;;;7.47;6.70;;;31.10;98.40;;;;;;5034936;28;20036;-76
2022/06/30 10:41:15;;;;;;;8.75;7.32;;;31.30;99.80;;;;;;5046071;28;20029;-77
2022/06/30 10:44:03;;;;;;;8.30;6.30;;;31.40;99.90;;;;;;5028705;28;20030;-76
2022/06/30 10:46:32;;;;;;;7.20;5.90;;;31.30;99.90;;;;;;5028515;28;20087;-76
2022/06/30 10:48:58;;;;;;;9.65;6.57;;;31.40;99.90;;;;;;5044313;28;20032;-76
2022/06/30 10:51:25;;;;;;;12.23;7.45;;;31.50;99.90;;;;;;5046755;28;20578;-76
2022/06/30 10:53:56;;;;;;;9.35;6.50;;;31.60;99.90;;;;;;5043767;28;20083;-76
2022/06/30 10:56:23;;;;;;;7.35;6.30;;;31.30;99.90;;;;;;5030919;28;20025;-76
2022/06/30 10:59:10;;;;;;;7.50;6.80;;;30.90;99.90;;;;;;5035172;28;20496;-76
2022/06/30 11:01:37;;;;;;;8.15;7.03;;;30.40;88.00;;;;;;5027464;28;20063;-77
2022/06/30 11:04:03;;;;;;;8.90;7.32;;;30.10;89.00;;;;;;5031514;28;20026;-77
2022/06/30 11:06:56;;;;;;;9.43;7.40;;;30.00;89.70;;;;;;5035773;28;20032;-76
2022/06/30 11:09:44;;;;;;;9.15;7.05;;;30.10;90.40;;;;;;5045658;28;20016;-76
2022/06/30 11:12:13;;;;;;;7.45;6.65;;;30.40;90.30;;;;;;5044748;28;20032;-74
2022/06/30 11:14:48;;;;;;;8.50;6.78;;;30.60;90.20;;;;;;5057642;28;20024;-74
2022/06/30 11:17:23;;;;;;;10.90;6.93;;;31.10;86.70;;;;;;5040683;28;20480;-74
2022/06/30 11:20:03;;;;;;;8.25;6.60;;;31.10;87.10;;;;;;5040650;28;20025;-74
2022/06/30 11:22:29;;;;;;;7.30;6.00;;;31.20;85.30;;;;;;5042218;28;20083;-74
2022/06/30 11:24:58;;;;;;;7.22;5.97;;;31.20;86.00;;;;;;5047418;28;20052;-74
2022/06/30 11:27:28;;;;;;;10.35;6.35;;;31.20;83.70;;;;;;5046653;28;20055;-74
2022/06/30 11:29:58;;;;;;;10.15;6.60;;;;;;;;;;5041339;28;20269;-75
2022/06/30 11:32:25;;;;;;;8.25;6.40;;;31.70;90.80;;;;;;5043655;28;20031;-73
2022/06/30 11:34:51;;;;;;;7.53;6.18;;;32.00;85.70;;;;;;5041427;28;20045;-74
2022/06/30 11:37:21;;;;;;;13.02;5.57;;;32.20;83.30;;;;;;5036202;28;20029;-73
2022/06/30 11:39:46;;;;;;;9.05;5.97;;;32.10;78.20;;;;;;5036922;28;20643;-73
2022/06/30 11:42:12;;;;;;;7.13;5.80;;;32.00;79.80;;;;;;5045138;28;20029;-73
2022/06/30 11:44:41;;;;;;;6.50;5.75;;;31.90;78.70;;;;;;5037013;28;20511;-73
2022/06/30 11:47:07;;;;;;;9.38;5.20;;;31.90;76.80;;;;;;5044121;28;20033;-73
2022/06/30 11:49:40;;;;;;;9.55;5.13;;;32.10;74.60;;;;;;5043384;28;20529;-73
2022/06/30 11:52:15;;;;;;;6.63;5.22;;;32.30;74.00;;;;;;5046264;28;20051;-73
2022/06/30 11:54:48;;;;;;;9.05;5.20;;;32.30;73.40;;;;;;5047094;28;20028;-73
2022/06/30 11:57:14;;;;;;;5.90;4.90;;;32.50;74.40;;;;;;5038641;28;20451;-73
2022/06/30 11:59:47;;;;;;;9.50;5.03;;;32.60;71.70;;;;;;5038472;28;20124;-73
2022/06/30 12:02:14;;;;;;;6.70;4.38;;;32.50;70.30;;;;;;5043571;28;20068;-73
2022/06/30 12:04:41;;;;;;;5.40;4.72;;;32.40;69.70;;;;;;5029911;28;20024;-73
2022/06/30 12:07:08;;;;;;;5.43;4.50;;;32.50;69.20;;;;;;5042238;28;20020;-74
2022/06/30 12:09:35;;;;;;;9.40;4.32;;;32.60;68.80;;;;;;5031360;28;20068;-74
2022/06/30 12:12:03;;;;;;;7.43;4.50;;;32.70;65.40;;;;;;5039232;28;20333;-74
2022/06/30 12:14:32;;;;;;;5.10;3.90;;;32.70;65.20;;;;;;5040790;28;20400;-74
2022/06/30 12:16:58;;;;;;;7.90;3.83;;;33.00;63.60;;;;;;5036248;28;20112;-73
2022/06/30 12:19:25;;;;;;;4.03;3.63;;;33.00;64.70;;;;;;5031576;28;20041;-74
2022/06/30 12:21:52;;;;;;;7.68;3.60;;;33.10;63.60;;;;;;5038598;28;20032;-74
2022/06/30 12:24:18;;;;;;;6.53;3.50;;;33.20;92.20;;;;;;5035454;28;20107;-73
2022/06/30 12:26:55;;;;;;;5.95;3.30;;;33.20;92.30;;;;;;5034210;28;20028;-74
2022/06/30 12:29:23;;;;;;;4.32;2.78;;;33.30;92.50;;;;;;5041433;28;20033;-74
2022/06/30 12:32:09;;;;;;;5.15;3.08;;;33.50;91.60;;;;;;5046677;28;20029;-74
2022/06/30 12:35:01;;;;;;;3.95;3.20;;;33.50;89.60;;;;;;5040265;28;20053;-73
2022/06/30 12:37:27;;;;;;;4.73;2.87;;;;;;;;;;5038485;28;20112;-75
2022/06/30 12:40:00;;;;;;;6.15;3.10;;;33.30;58.20;;;;;;5023894;28;20460;-74
2022/06/30 12:42:37;;;;;;;4.43;3.33;;;33.40;59.30;;;;;;5039474;28;20103;-74
2022/06/30 12:45:03;;;;;;;7.80;3.40;;;33.30;57.50;;;;;;5044005;28;20067;-74
2022/06/30 12:47:30;;;;;;;9.38;3.40;;;33.20;59.10;;;;;;5031958;28;20032;-74
2022/06/30 12:49:55;;;;;;;5.68;3.13;;;33.30;58.50;;;;;;5035538;28;20036;-74
2022/06/30 12:52:22;;;;;;;4.78;3.00;;;33.40;57.90;;;;;;5044580;28;20029;-74
2022/06/30 12:54:58;;;;;;;5.55;3.22;;;33.60;57.10;;;;;;5039134;28;20064;-74
2022/06/30 12:57:25;;;;;;;3.53;3.00;;;33.80;55.10;;;;;;5034367;28;20029;-73
2022/06/30 12:59:56;;;;;;;5.32;3.10;;;33.70;55.90;;;;;;5036611;28;21448;-74
2022/06/30 13:02:37;;;;;;;3.70;3.10;;;33.60;56.30;;;;;;5030396;28;20038;-74
2022/06/30 13:05:03;;;;;;;7.85;3.08;;;33.70;55.30;;;;;;5042589;28;20044;-73